sensor_id;sensor_type;location;lat;lon;timestamp;P1;durP1;ratioP1;P2;durP2;ratioP2
36191;SDS011;22233;42.708;23.360;2023-04-03T00:01:06;4.10;;;2.60;;
36191;SDS011;22233;42.708;23.360;2023-04-03T00:03:31;3.88;;;2.47;;
36191;SDS011;22233;42.708;23.360;2023-04-03T00:05:58;4.53;;;2.70;;
36191;SDS011;22233;42.708;23.360;2023-04-03T00:08:23;5.95;;;2.92;;
36191;SDS011;22233;42.708;23.360;2023-04-03T00:10:49;6.10;;;3.20;;
36191;SDS011;22233;42.708;23.360;2023-04-03T00:13:14;3.95;;;2.53;;
36191;SDS011;22233;42.708;23.360;2023-04-03T00:15:40;4.45;;;2.97;;
36191;SDS011;22233;42.708;23.360;2023-04-03T00:18:06;5.43;;;3.05;;
36191;SDS011;22233;42.708;23.360;2023-04-03T00:20:32;5.05;;;3.00;;
36191;SDS011;22233;42.708;23.360;2023-04-03T00:22:59;5.00;;;2.97;;
36191;SDS011;22233;42.708;23.360;2023-04-03T00:25:25;4.90;;;2.85;;
36191;SDS011;22233;42.708;23.360;2023-04-03T00:27:51;4.50;;;2.67;;
36191;SDS011;22233;42.708;23.360;2023-04-03T00:30:17;5.00;;;3.42;;
36191;SDS011;22233;42.708;23.360;2023-04-03T00:32:44;5.63;;;3.28;;
36191;SDS011;22233;42.708;23.360;2023-04-03T00:35:09;4.72;;;2.67;;
36191;SDS011;22233;42.708;23.360;2023-04-03T00:37:35;7.85;;;3.35;;
36191;SDS011;22233;42.708;23.360;2023-04-03T00:40:01;3.97;;;2.90;;
36191;SDS011;22233;42.708;23.360;2023-04-03T00:42:27;5.72;;;3.40;;
36191;SDS011;22233;42.708;23.360;2023-04-03T00:47:18;6.15;;;2.83;;
36191;SDS011;22233;42.708;23.360;2023-04-03T00:49:43;5.95;;;3.15;;
36191;SDS011;22233;42.708;23.360;2023-04-03T00:52:14;4.50;;;3.13;;
36191;SDS011;22233;42.708;23.360;2023-04-03T00:54:43;6.78;;;4.03;;
36191;SDS011;22233;42.708;23.360;2023-04-03T00:57:10;4.80;;;3.33;;
36191;SDS011;22233;42.708;23.360;2023-04-03T00:59:38;5.47;;;3.75;;
36191;SDS011;22233;42.708;23.360;2023-04-03T01:02:09;6.15;;;4.10;;
36191;SDS011;22233;42.708;23.360;2023-04-03T01:04:38;6.95;;;4.13;;
36191;SDS011;22233;42.708;23.360;2023-04-03T01:07:15;6.43;;;3.63;;
36191;SDS011;22233;42.708;23.360;2023-04-03T01:09:44;9.32;;;4.10;;
36191;SDS011;22233;42.708;23.360;2023-04-03T01:14:43;5.85;;;3.97;;
36191;SDS011;22233;42.708;23.360;2023-04-03T01:17:27;5.43;;;3.58;;
36191;SDS011;22233;42.708;23.360;2023-04-03T01:25:21;6.65;;;3.63;;
36191;SDS011;22233;42.708;23.360;2023-04-03T01:27:46;5.88;;;3.17;;
36191;SDS011;22233;42.708;23.360;2023-04-03T01:30:12;6.63;;;4.30;;
36191;SDS011;22233;42.708;23.360;2023-04-03T01:32:41;9.15;;;4.10;;
36191;SDS011;22233;42.708;23.360;2023-04-03T01:35:08;6.88;;;4.18;;
36191;SDS011;22233;42.708;23.360;2023-04-03T01:37:34;10.27;;;4.82;;
36191;SDS011;22233;42.708;23.360;2023-04-03T01:40:00;6.30;;;3.35;;
36191;SDS011;22233;42.708;23.360;2023-04-03T01:42:25;5.65;;;3.58;;
36191;SDS011;22233;42.708;23.360;2023-04-03T01:44:51;6.95;;;3.67;;
36191;SDS011;22233;42.708;23.360;2023-04-03T01:47:16;5.93;;;3.45;;
36191;SDS011;22233;42.708;23.360;2023-04-03T01:49:42;8.07;;;3.53;;
36191;SDS011;22233;42.708;23.360;2023-04-03T01:52:07;5.95;;;3.70;;
36191;SDS011;22233;42.708;23.360;2023-04-03T01:54:32;9.32;;;3.53;;
36191;SDS011;22233;42.708;23.360;2023-04-03T01:56:58;5.82;;;3.50;;
36191;SDS011;22233;42.708;23.360;2023-04-03T01:59:23;5.75;;;3.20;;
36191;SDS011;22233;42.708;23.360;2023-04-03T02:01:49;5.63;;;3.10;;
36191;SDS011;22233;42.708;23.360;2023-04-03T02:04:14;5.13;;;2.60;;
36191;SDS011;22233;42.708;23.360;2023-04-03T02:06:40;5.30;;;2.70;;
36191;SDS011;22233;42.708;23.360;2023-04-03T02:09:05;3.85;;;2.45;;
36191;SDS011;22233;42.708;23.360;2023-04-03T02:11:31;5.95;;;3.33;;
36191;SDS011;22233;42.708;23.360;2023-04-03T02:13:57;4.07;;;2.35;;
36191;SDS011;22233;42.708;23.360;2023-04-03T02:16:23;5.25;;;2.90;;
36191;SDS011;22233;42.708;23.360;2023-04-03T02:18:48;6.35;;;2.92;;
36191;SDS011;22233;42.708;23.360;2023-04-03T02:21:14;4.55;;;2.38;;
36191;SDS011;22233;42.708;23.360;2023-04-03T02:23:40;5.80;;;3.83;;
36191;SDS011;22233;42.708;23.360;2023-04-03T02:26:06;7.70;;;3.35;;
36191;SDS011;22233;42.708;23.360;2023-04-03T02:28:34;7.90;;;4.00;;
36191;SDS011;22233;42.708;23.360;2023-04-03T02:31:00;4.45;;;3.63;;
36191;SDS011;22233;42.708;23.360;2023-04-03T02:33:25;7.68;;;4.47;;
36191;SDS011;22233;42.708;23.360;2023-04-03T02:35:54;9.23;;;3.97;;
36191;SDS011;22233;42.708;23.360;2023-04-03T02:38:20;7.20;;;3.83;;
36191;SDS011;22233;42.708;23.360;2023-04-03T02:40:46;8.55;;;4.82;;
36191;SDS011;22233;42.708;23.360;2023-04-03T02:43:12;7.75;;;4.07;;
36191;SDS011;22233;42.708;23.360;2023-04-03T02:45:37;5.80;;;4.00;;
36191;SDS011;22233;42.708;23.360;2023-04-03T02:48:03;6.40;;;3.72;;
36191;SDS011;22233;42.708;23.360;2023-04-03T02:50:29;7.20;;;4.25;;
36191;SDS011;22233;42.708;23.360;2023-04-03T02:52:54;7.63;;;4.18;;
36191;SDS011;22233;42.708;23.360;2023-04-03T02:55:20;8.30;;;4.10;;
36191;SDS011;22233;42.708;23.360;2023-04-03T02:57:45;7.30;;;3.90;;
36191;SDS011;22233;42.708;23.360;2023-04-03T03:00:11;8.13;;;4.00;;
36191;SDS011;22233;42.708;23.360;2023-04-03T03:02:37;7.57;;;4.25;;
36191;SDS011;22233;42.708;23.360;2023-04-03T03:05:02;7.68;;;4.90;;
36191;SDS011;22233;42.708;23.360;2023-04-03T03:07:28;11.45;;;4.47;;
36191;SDS011;22233;42.708;23.360;2023-04-03T03:09:53;9.30;;;4.65;;
36191;SDS011;22233;42.708;23.360;2023-04-03T03:12:18;10.15;;;5.68;;
36191;SDS011;22233;42.708;23.360;2023-04-03T03:17:12;12.50;;;5.88;;
36191;SDS011;22233;42.708;23.360;2023-04-03T03:19:37;9.00;;;5.35;;
36191;SDS011;22233;42.708;23.360;2023-04-03T03:22:02;12.63;;;5.25;;
36191;SDS011;22233;42.708;23.360;2023-04-03T03:24:28;8.27;;;5.70;;
36191;SDS011;22233;42.708;23.360;2023-04-03T03:26:53;9.48;;;5.47;;
36191;SDS011;22233;42.708;23.360;2023-04-03T03:29:19;7.93;;;4.93;;
36191;SDS011;22233;42.708;23.360;2023-04-03T03:31:44;14.23;;;6.05;;
36191;SDS011;22233;42.708;23.360;2023-04-03T03:34:10;7.18;;;5.55;;
36191;SDS011;22233;42.708;23.360;2023-04-03T03:36:36;10.32;;;5.15;;
36191;SDS011;22233;42.708;23.360;2023-04-03T03:39:01;10.40;;;6.00;;
36191;SDS011;22233;42.708;23.360;2023-04-03T03:41:27;9.95;;;4.68;;
36191;SDS011;22233;42.708;23.360;2023-04-03T03:43:52;8.95;;;5.07;;
36191;SDS011;22233;42.708;23.360;2023-04-03T03:46:18;7.75;;;4.60;;
36191;SDS011;22233;42.708;23.360;2023-04-03T03:48:43;7.85;;;5.10;;
36191;SDS011;22233;42.708;23.360;2023-04-03T03:51:08;6.47;;;4.63;;
36191;SDS011;22233;42.708;23.360;2023-04-03T03:53:34;10.48;;;5.25;;
36191;SDS011;22233;42.708;23.360;2023-04-03T03:55:59;10.05;;;5.65;;
36191;SDS011;22233;42.708;23.360;2023-04-03T03:58:25;8.90;;;5.22;;
36191;SDS011;22233;42.708;23.360;2023-04-03T04:00:50;9.23;;;6.03;;
36191;SDS011;22233;42.708;23.360;2023-04-03T04:03:16;11.02;;;6.15;;
36191;SDS011;22233;42.708;23.360;2023-04-03T04:05:41;10.27;;;5.97;;
36191;SDS011;22233;42.708;23.360;2023-04-03T04:08:06;12.15;;;6.28;;
36191;SDS011;22233;42.708;23.360;2023-04-03T04:10:32;10.10;;;6.65;;
36191;SDS011;22233;42.708;23.360;2023-04-03T04:12:59;14.32;;;6.35;;
36191;SDS011;22233;42.708;23.360;2023-04-03T04:15:24;11.07;;;7.32;;
36191;SDS011;22233;42.708;23.360;2023-04-03T04:17:50;10.27;;;6.38;;
36191;SDS011;22233;42.708;23.360;2023-04-03T04:20:16;10.63;;;6.68;;
36191;SDS011;22233;42.708;23.360;2023-04-03T04:22:41;10.98;;;6.78;;
36191;SDS011;22233;42.708;23.360;2023-04-03T04:25:07;10.68;;;6.70;;
36191;SDS011;22233;42.708;23.360;2023-04-03T04:27:33;10.40;;;7.03;;
36191;SDS011;22233;42.708;23.360;2023-04-03T04:29:58;14.85;;;7.00;;
36191;SDS011;22233;42.708;23.360;2023-04-03T04:32:24;13.48;;;7.63;;
36191;SDS011;22233;42.708;23.360;2023-04-03T04:34:49;14.23;;;7.78;;
36191;SDS011;22233;42.708;23.360;2023-04-03T04:37:15;12.95;;;6.93;;
36191;SDS011;22233;42.708;23.360;2023-04-03T04:39:40;15.07;;;7.90;;
36191;SDS011;22233;42.708;23.360;2023-04-03T04:42:06;10.80;;;7.35;;
36191;SDS011;22233;42.708;23.360;2023-04-03T04:44:32;12.68;;;7.75;;
36191;SDS011;22233;42.708;23.360;2023-04-03T04:46:57;14.15;;;8.38;;
36191;SDS011;22233;42.708;23.360;2023-04-03T04:49:23;21.40;;;9.40;;
36191;SDS011;22233;42.708;23.360;2023-04-03T04:51:48;19.25;;;12.88;;
36191;SDS011;22233;42.708;23.360;2023-04-03T04:54:13;21.40;;;15.75;;
36191;SDS011;22233;42.708;23.360;2023-04-03T04:56:39;22.63;;;15.90;;
36191;SDS011;22233;42.708;23.360;2023-04-03T04:59:05;30.30;;;19.92;;
36191;SDS011;22233;42.708;23.360;2023-04-03T05:01:30;31.08;;;24.10;;
36191;SDS011;22233;42.708;23.360;2023-04-03T05:03:56;26.55;;;18.20;;
36191;SDS011;22233;42.708;23.360;2023-04-03T05:06:21;24.58;;;18.15;;
36191;SDS011;22233;42.708;23.360;2023-04-03T05:08:46;27.20;;;21.45;;
36191;SDS011;22233;42.708;23.360;2023-04-03T05:11:12;31.30;;;22.85;;
36191;SDS011;22233;42.708;23.360;2023-04-03T05:13:37;28.52;;;20.70;;
36191;SDS011;22233;42.708;23.360;2023-04-03T05:16:03;28.35;;;22.23;;
36191;SDS011;22233;42.708;23.360;2023-04-03T05:18:29;24.30;;;16.10;;
36191;SDS011;22233;42.708;23.360;2023-04-03T05:20:54;17.48;;;14.50;;
36191;SDS011;22233;42.708;23.360;2023-04-03T05:23:19;20.75;;;13.57;;
36191;SDS011;22233;42.708;23.360;2023-04-03T05:25:45;16.20;;;12.13;;
36191;SDS011;22233;42.708;23.360;2023-04-03T05:28:11;20.00;;;17.73;;
36191;SDS011;22233;42.708;23.360;2023-04-03T05:30:37;29.30;;;21.20;;
36191;SDS011;22233;42.708;23.360;2023-04-03T05:33:03;20.65;;;18.30;;
36191;SDS011;22233;42.708;23.360;2023-04-03T05:35:28;23.13;;;16.50;;
36191;SDS011;22233;42.708;23.360;2023-04-03T05:37:54;26.20;;;17.17;;
36191;SDS011;22233;42.708;23.360;2023-04-03T05:40:19;23.13;;;18.67;;
36191;SDS011;22233;42.708;23.360;2023-04-03T05:42:45;32.80;;;24.63;;
36191;SDS011;22233;42.708;23.360;2023-04-03T05:45:10;36.10;;;26.33;;
36191;SDS011;22233;42.708;23.360;2023-04-03T05:47:36;33.13;;;22.52;;
36191;SDS011;22233;42.708;23.360;2023-04-03T05:50:02;27.63;;;19.95;;
36191;SDS011;22233;42.708;23.360;2023-04-03T05:52:33;31.92;;;18.88;;
36191;SDS011;22233;42.708;23.360;2023-04-03T05:55:01;23.35;;;17.45;;
36191;SDS011;22233;42.708;23.360;2023-04-03T05:57:27;26.35;;;17.35;;
36191;SDS011;22233;42.708;23.360;2023-04-03T05:59:53;28.17;;;17.58;;
36191;SDS011;22233;42.708;23.360;2023-04-03T06:02:19;26.80;;;18.60;;
36191;SDS011;22233;42.708;23.360;2023-04-03T06:04:46;30.30;;;21.08;;
36191;SDS011;22233;42.708;23.360;2023-04-03T06:07:16;24.13;;;17.95;;
36191;SDS011;22233;42.708;23.360;2023-04-03T06:09:44;25.75;;;14.65;;
36191;SDS011;22233;42.708;23.360;2023-04-03T06:12:10;18.17;;;13.00;;
36191;SDS011;22233;42.708;23.360;2023-04-03T06:14:36;19.48;;;16.50;;
36191;SDS011;22233;42.708;23.360;2023-04-03T06:17:02;28.88;;;24.27;;
36191;SDS011;22233;42.708;23.360;2023-04-03T06:19:29;34.20;;;28.02;;
36191;SDS011;22233;42.708;23.360;2023-04-03T06:21:55;34.28;;;29.08;;
36191;SDS011;22233;42.708;23.360;2023-04-03T06:24:21;35.28;;;28.95;;
36191;SDS011;22233;42.708;23.360;2023-04-03T06:26:48;29.80;;;23.75;;
36191;SDS011;22233;42.708;23.360;2023-04-03T06:29:14;15.30;;;10.35;;
36191;SDS011;22233;42.708;23.360;2023-04-03T06:31:40;10.95;;;7.88;;
36191;SDS011;22233;42.708;23.360;2023-04-03T06:34:06;10.43;;;7.25;;
36191;SDS011;22233;42.708;23.360;2023-04-03T06:36:32;12.98;;;7.72;;
36191;SDS011;22233;42.708;23.360;2023-04-03T06:38:57;13.60;;;8.60;;
36191;SDS011;22233;42.708;23.360;2023-04-03T06:41:23;10.55;;;8.30;;
36191;SDS011;22233;42.708;23.360;2023-04-03T06:43:48;13.75;;;8.13;;
36191;SDS011;22233;42.708;23.360;2023-04-03T06:46:18;12.88;;;9.30;;
36191;SDS011;22233;42.708;23.360;2023-04-03T06:48:45;14.68;;;12.35;;
36191;SDS011;22233;42.708;23.360;2023-04-03T06:51:21;22.10;;;13.80;;
36191;SDS011;22233;42.708;23.360;2023-04-03T06:53:52;22.10;;;15.07;;
36191;SDS011;22233;42.708;23.360;2023-04-03T06:56:20;18.08;;;16.00;;
36191;SDS011;22233;42.708;23.360;2023-04-03T06:58:46;20.17;;;16.25;;
36191;SDS011;22233;42.708;23.360;2023-04-03T07:01:12;19.88;;;15.02;;
36191;SDS011;22233;42.708;23.360;2023-04-03T07:03:39;19.65;;;14.32;;
36191;SDS011;22233;42.708;23.360;2023-04-03T07:06:05;22.90;;;14.80;;
36191;SDS011;22233;42.708;23.360;2023-04-03T07:08:33;24.02;;;18.02;;
36191;SDS011;22233;42.708;23.360;2023-04-03T07:10:59;17.70;;;14.15;;
36191;SDS011;22233;42.708;23.360;2023-04-03T07:13:24;19.00;;;13.30;;
36191;SDS011;22233;42.708;23.360;2023-04-03T07:15:50;24.02;;;12.80;;
36191;SDS011;22233;42.708;23.360;2023-04-03T07:18:16;19.45;;;12.40;;
36191;SDS011;22233;42.708;23.360;2023-04-03T07:20:42;19.65;;;13.07;;
36191;SDS011;22233;42.708;23.360;2023-04-03T07:23:08;19.45;;;12.60;;
36191;SDS011;22233;42.708;23.360;2023-04-03T07:25:34;16.48;;;12.30;;
36191;SDS011;22233;42.708;23.360;2023-04-03T07:28:00;22.80;;;13.20;;
36191;SDS011;22233;42.708;23.360;2023-04-03T07:30:25;15.38;;;11.55;;
36191;SDS011;22233;42.708;23.360;2023-04-03T07:32:51;22.88;;;13.77;;
36191;SDS011;22233;42.708;23.360;2023-04-03T07:35:17;16.55;;;11.98;;
36191;SDS011;22233;42.708;23.360;2023-04-03T07:37:42;21.80;;;11.77;;
36191;SDS011;22233;42.708;23.360;2023-04-03T07:40:08;17.58;;;11.18;;
36191;SDS011;22233;42.708;23.360;2023-04-03T07:42:34;19.98;;;11.02;;
36191;SDS011;22233;42.708;23.360;2023-04-03T07:45:01;18.77;;;10.95;;
36191;SDS011;22233;42.708;23.360;2023-04-03T07:47:28;17.40;;;10.57;;
36191;SDS011;22233;42.708;23.360;2023-04-03T07:49:53;21.15;;;10.25;;
36191;SDS011;22233;42.708;23.360;2023-04-03T07:52:19;18.40;;;10.63;;
36191;SDS011;22233;42.708;23.360;2023-04-03T07:54:44;13.75;;;9.60;;
36191;SDS011;22233;42.708;23.360;2023-04-03T07:57:10;15.32;;;9.65;;
36191;SDS011;22233;42.708;23.360;2023-04-03T07:59:35;15.80;;;9.25;;
36191;SDS011;22233;42.708;23.360;2023-04-03T08:02:01;13.10;;;9.35;;
36191;SDS011;22233;42.708;23.360;2023-04-03T08:04:26;16.20;;;9.13;;
36191;SDS011;22233;42.708;23.360;2023-04-03T08:06:52;15.02;;;9.00;;
36191;SDS011;22233;42.708;23.360;2023-04-03T08:09:18;12.52;;;8.80;;
36191;SDS011;22233;42.708;23.360;2023-04-03T08:11:44;13.60;;;8.55;;
36191;SDS011;22233;42.708;23.360;2023-04-03T08:14:10;13.75;;;8.63;;
36191;SDS011;22233;42.708;23.360;2023-04-03T08:16:40;15.10;;;8.75;;
36191;SDS011;22233;42.708;23.360;2023-04-03T08:19:05;10.38;;;8.43;;
36191;SDS011;22233;42.708;23.360;2023-04-03T08:21:32;11.25;;;8.40;;
36191;SDS011;22233;42.708;23.360;2023-04-03T08:23:58;14.20;;;8.43;;
36191;SDS011;22233;42.708;23.360;2023-04-03T08:26:23;14.88;;;8.82;;
36191;SDS011;22233;42.708;23.360;2023-04-03T08:28:49;11.05;;;8.10;;
36191;SDS011;22233;42.708;23.360;2023-04-03T08:31:15;8.18;;;6.30;;
36191;SDS011;22233;42.708;23.360;2023-04-03T08:33:44;16.88;;;7.93;;
36191;SDS011;22233;42.708;23.360;2023-04-03T08:36:20;13.18;;;8.93;;
36191;SDS011;22233;42.708;23.360;2023-04-03T08:38:47;11.90;;;7.78;;
36191;SDS011;22233;42.708;23.360;2023-04-03T08:41:28;14.40;;;8.68;;
36191;SDS011;22233;42.708;23.360;2023-04-03T08:47:02;16.85;;;8.63;;
36191;SDS011;22233;42.708;23.360;2023-04-03T08:49:36;14.82;;;9.55;;
36191;SDS011;22233;42.708;23.360;2023-04-03T08:52:28;14.18;;;9.50;;
36191;SDS011;22233;42.708;23.360;2023-04-03T08:55:02;13.82;;;9.20;;
36191;SDS011;22233;42.708;23.360;2023-04-03T08:57:33;12.70;;;8.70;;
36191;SDS011;22233;42.708;23.360;2023-04-03T09:00:13;11.82;;;8.52;;
36191;SDS011;22233;42.708;23.360;2023-04-03T09:02:47;14.65;;;9.10;;
36191;SDS011;22233;42.708;23.360;2023-04-03T09:05:39;12.73;;;8.77;;
36191;SDS011;22233;42.708;23.360;2023-04-03T09:16:53;12.70;;;7.85;;
36191;SDS011;22233;42.708;23.360;2023-04-03T09:19:39;10.18;;;6.82;;
36191;SDS011;22233;42.708;23.360;2023-04-03T09:24:40;14.00;;;9.63;;
36191;SDS011;22233;42.708;23.360;2023-04-03T09:27:07;12.10;;;9.00;;
36191;SDS011;22233;42.708;23.360;2023-04-03T09:29:37;17.55;;;9.20;;
36191;SDS011;22233;42.708;23.360;2023-04-03T09:32:38;12.40;;;9.30;;
36191;SDS011;22233;42.708;23.360;2023-04-03T09:34:59;11.63;;;7.43;;
36191;SDS011;22233;42.708;23.360;2023-04-03T09:40:03;11.13;;;7.97;;
36191;SDS011;22233;42.708;23.360;2023-04-03T09:42:30;13.00;;;8.70;;
36191;SDS011;22233;42.708;23.360;2023-04-03T09:44:58;13.10;;;7.85;;
36191;SDS011;22233;42.708;23.360;2023-04-03T09:47:29;12.95;;;7.93;;
36191;SDS011;22233;42.708;23.360;2023-04-03T09:52:47;10.95;;;7.25;;
36191;SDS011;22233;42.708;23.360;2023-04-03T09:55:15;10.80;;;6.82;;
36191;SDS011;22233;42.708;23.360;2023-04-03T09:58:01;9.25;;;6.82;;
36191;SDS011;22233;42.708;23.360;2023-04-03T10:03:05;17.42;;;6.90;;
36191;SDS011;22233;42.708;23.360;2023-04-03T10:05:48;9.10;;;7.28;;
36191;SDS011;22233;42.708;23.360;2023-04-03T10:10:42;8.25;;;6.20;;
36191;SDS011;22233;42.708;23.360;2023-04-03T10:15:50;9.70;;;7.27;;
36191;SDS011;22233;42.708;23.360;2023-04-03T10:24:11;9.73;;;6.40;;
36191;SDS011;22233;42.708;23.360;2023-04-03T10:27:03;8.57;;;6.95;;
36191;SDS011;22233;42.708;23.360;2023-04-03T10:29:42;12.40;;;7.35;;
36191;SDS011;22233;42.708;23.360;2023-04-03T10:35:02;8.68;;;5.82;;
36191;SDS011;22233;42.708;23.360;2023-04-03T10:40:52;10.48;;;6.30;;
36191;SDS011;22233;42.708;23.360;2023-04-03T10:54:38;8.32;;;5.88;;
36191;SDS011;22233;42.708;23.360;2023-04-03T10:57:10;7.05;;;5.18;;
36191;SDS011;22233;42.708;23.360;2023-04-03T10:59:47;10.45;;;5.75;;
36191;SDS011;22233;42.708;23.360;2023-04-03T11:04:50;9.25;;;5.55;;
36191;SDS011;22233;42.708;23.360;2023-04-03T11:07:21;9.00;;;4.93;;
36191;SDS011;22233;42.708;23.360;2023-04-03T11:09:50;10.52;;;6.43;;
36191;SDS011;22233;42.708;23.360;2023-04-03T11:12:23;12.77;;;6.70;;
36191;SDS011;22233;42.708;23.360;2023-04-03T11:14:53;27.83;;;10.75;;
36191;SDS011;22233;42.708;23.360;2023-04-03T11:22:42;5.43;;;3.95;;
36191;SDS011;22233;42.708;23.360;2023-04-03T11:27:40;5.03;;;3.80;;
36191;SDS011;22233;42.708;23.360;2023-04-03T11:30:19;3.67;;;2.85;;
36191;SDS011;22233;42.708;23.360;2023-04-03T11:32:52;5.30;;;2.95;;
36191;SDS011;22233;42.708;23.360;2023-04-03T11:35:27;6.90;;;3.65;;
36191;SDS011;22233;42.708;23.360;2023-04-03T11:37:53;7.10;;;3.92;;
36191;SDS011;22233;42.708;23.360;2023-04-03T11:42:46;6.57;;;3.97;;
36191;SDS011;22233;42.708;23.360;2023-04-03T11:47:50;13.68;;;5.97;;
36191;SDS011;22233;42.708;23.360;2023-04-03T11:50:32;7.95;;;4.55;;
36191;SDS011;22233;42.708;23.360;2023-04-03T12:48:26;3.35;;;2.78;;
36191;SDS011;22233;42.708;23.360;2023-04-03T12:50:53;6.00;;;2.63;;
36191;SDS011;22233;42.708;23.360;2023-04-03T12:53:21;3.42;;;2.33;;
36191;SDS011;22233;42.708;23.360;2023-04-03T12:55:57;2.65;;;2.13;;
36191;SDS011;22233;42.708;23.360;2023-04-03T12:58:47;3.33;;;2.63;;
36191;SDS011;22233;42.708;23.360;2023-04-03T13:01:17;3.40;;;2.70;;
36191;SDS011;22233;42.708;23.360;2023-04-03T13:03:57;3.70;;;2.90;;
36191;SDS011;22233;42.708;23.360;2023-04-03T13:06:24;5.07;;;3.33;;
36191;SDS011;22233;42.708;23.360;2023-04-03T13:08:53;4.75;;;3.70;;
36191;SDS011;22233;42.708;23.360;2023-04-03T13:11:22;6.07;;;3.78;;
36191;SDS011;22233;42.708;23.360;2023-04-03T13:18:52;6.82;;;4.05;;
36191;SDS011;22233;42.708;23.360;2023-04-03T13:21:20;4.20;;;3.67;;
36191;SDS011;22233;42.708;23.360;2023-04-03T13:23:51;5.97;;;4.47;;
36191;SDS011;22233;42.708;23.360;2023-04-03T13:26:20;5.70;;;4.75;;
36191;SDS011;22233;42.708;23.360;2023-04-03T13:28:48;5.10;;;4.38;;
36191;SDS011;22233;42.708;23.360;2023-04-03T13:31:19;6.00;;;5.13;;
36191;SDS011;22233;42.708;23.360;2023-04-03T13:34:11;6.00;;;5.07;;
36191;SDS011;22233;42.708;23.360;2023-04-03T13:36:43;8.13;;;6.35;;
36191;SDS011;22233;42.708;23.360;2023-04-03T13:39:21;8.93;;;6.43;;
36191;SDS011;22233;42.708;23.360;2023-04-03T13:41:59;9.77;;;6.78;;
36191;SDS011;22233;42.708;23.360;2023-04-03T13:49:39;5.57;;;4.88;;
36191;SDS011;22233;42.708;23.360;2023-04-03T13:54:57;8.00;;;6.07;;
36191;SDS011;22233;42.708;23.360;2023-04-03T13:57:24;6.78;;;5.35;;
36191;SDS011;22233;42.708;23.360;2023-04-03T13:59:50;6.65;;;4.70;;
36191;SDS011;22233;42.708;23.360;2023-04-03T14:04:55;5.40;;;4.40;;
36191;SDS011;22233;42.708;23.360;2023-04-03T14:07:26;5.13;;;3.80;;
36191;SDS011;22233;42.708;23.360;2023-04-03T14:09:53;4.78;;;3.08;;
36191;SDS011;22233;42.708;23.360;2023-04-03T14:15:16;5.70;;;3.78;;
36191;SDS011;22233;42.708;23.360;2023-04-03T14:17:44;4.18;;;3.13;;
36191;SDS011;22233;42.708;23.360;2023-04-03T14:20:20;5.50;;;3.50;;
36191;SDS011;22233;42.708;23.360;2023-04-03T14:22:48;6.07;;;3.78;;
36191;SDS011;22233;42.708;23.360;2023-04-03T14:25:14;5.78;;;3.88;;
36191;SDS011;22233;42.708;23.360;2023-04-03T14:27:41;5.22;;;4.15;;
36191;SDS011;22233;42.708;23.360;2023-04-03T14:30:11;6.15;;;4.35;;
36191;SDS011;22233;42.708;23.360;2023-04-03T14:32:41;4.85;;;3.75;;
36191;SDS011;22233;42.708;23.360;2023-04-03T14:35:07;5.10;;;4.13;;
36191;SDS011;22233;42.708;23.360;2023-04-03T14:37:33;4.88;;;3.50;;
36191;SDS011;22233;42.708;23.360;2023-04-03T14:40:00;3.97;;;3.03;;
36191;SDS011;22233;42.708;23.360;2023-04-03T14:42:29;5.05;;;3.55;;
36191;SDS011;22233;42.708;23.360;2023-04-03T14:44:57;3.20;;;2.75;;
36191;SDS011;22233;42.708;23.360;2023-04-03T14:47:24;4.35;;;3.60;;
36191;SDS011;22233;42.708;23.360;2023-04-03T14:49:52;4.30;;;3.53;;
36191;SDS011;22233;42.708;23.360;2023-04-03T14:52:19;5.28;;;3.90;;
36191;SDS011;22233;42.708;23.360;2023-04-03T14:54:51;5.13;;;3.85;;
36191;SDS011;22233;42.708;23.360;2023-04-03T14:57:17;4.95;;;3.95;;
36191;SDS011;22233;42.708;23.360;2023-04-03T14:59:45;6.83;;;5.00;;
36191;SDS011;22233;42.708;23.360;2023-04-03T15:02:53;7.15;;;5.03;;
36191;SDS011;22233;42.708;23.360;2023-04-03T15:05:04;7.07;;;5.22;;
36191;SDS011;22233;42.708;23.360;2023-04-03T15:07:32;7.75;;;5.20;;
36191;SDS011;22233;42.708;23.360;2023-04-03T15:10:06;8.60;;;5.13;;
36191;SDS011;22233;42.708;23.360;2023-04-03T15:12:38;6.47;;;4.45;;
36191;SDS011;22233;42.708;23.360;2023-04-03T15:15:04;6.65;;;4.78;;
36191;SDS011;22233;42.708;23.360;2023-04-03T15:17:30;7.50;;;5.50;;
36191;SDS011;22233;42.708;23.360;2023-04-03T15:19:55;8.23;;;5.20;;
36191;SDS011;22233;42.708;23.360;2023-04-03T15:22:21;10.48;;;6.93;;
36191;SDS011;22233;42.708;23.360;2023-04-03T15:24:46;11.98;;;6.05;;
36191;SDS011;22233;42.708;23.360;2023-04-03T15:27:13;8.70;;;6.28;;
36191;SDS011;22233;42.708;23.360;2023-04-03T15:29:40;9.15;;;5.97;;
36191;SDS011;22233;42.708;23.360;2023-04-03T15:32:07;11.18;;;5.93;;
36191;SDS011;22233;42.708;23.360;2023-04-03T15:34:34;9.38;;;6.15;;
36191;SDS011;22233;42.708;23.360;2023-04-03T15:37:01;8.32;;;5.95;;
36191;SDS011;22233;42.708;23.360;2023-04-03T15:39:26;9.35;;;5.65;;
36191;SDS011;22233;42.708;23.360;2023-04-03T15:41:52;9.88;;;6.50;;
36191;SDS011;22233;42.708;23.360;2023-04-03T15:44:18;9.07;;;6.07;;
36191;SDS011;22233;42.708;23.360;2023-04-03T15:46:47;7.25;;;5.97;;
36191;SDS011;22233;42.708;23.360;2023-04-03T15:49:16;8.75;;;5.60;;
36191;SDS011;22233;42.708;23.360;2023-04-03T15:51:42;12.80;;;6.15;;
36191;SDS011;22233;42.708;23.360;2023-04-03T15:54:07;10.32;;;6.07;;
36191;SDS011;22233;42.708;23.360;2023-04-03T15:56:33;8.00;;;5.43;;
36191;SDS011;22233;42.708;23.360;2023-04-03T15:58:58;7.07;;;4.93;;
36191;SDS011;22233;42.708;23.360;2023-04-03T16:01:24;7.80;;;5.22;;
36191;SDS011;22233;42.708;23.360;2023-04-03T16:03:49;8.00;;;4.70;;
36191;SDS011;22233;42.708;23.360;2023-04-03T16:06:15;5.07;;;4.10;;
36191;SDS011;22233;42.708;23.360;2023-04-03T16:08:44;6.32;;;4.55;;
36191;SDS011;22233;42.708;23.360;2023-04-03T16:11:11;7.38;;;4.70;;
36191;SDS011;22233;42.708;23.360;2023-04-03T16:13:37;8.65;;;5.95;;
36191;SDS011;22233;42.708;23.360;2023-04-03T16:16:02;8.00;;;4.82;;
36191;SDS011;22233;42.708;23.360;2023-04-03T16:18:30;6.80;;;4.63;;
36191;SDS011;22233;42.708;23.360;2023-04-03T16:20:56;7.07;;;4.25;;
36191;SDS011;22233;42.708;23.360;2023-04-03T16:23:22;6.72;;;4.03;;
36191;SDS011;22233;42.708;23.360;2023-04-03T16:25:48;4.60;;;3.00;;
36191;SDS011;22233;42.708;23.360;2023-04-03T16:28:15;3.92;;;3.10;;
36191;SDS011;22233;42.708;23.360;2023-04-03T16:33:08;6.30;;;3.55;;
36191;SDS011;22233;42.708;23.360;2023-04-03T16:35:35;5.90;;;4.03;;
36191;SDS011;22233;42.708;23.360;2023-04-03T16:38:00;7.40;;;5.05;;
36191;SDS011;22233;42.708;23.360;2023-04-03T16:40:25;5.85;;;4.22;;
36191;SDS011;22233;42.708;23.360;2023-04-03T16:42:51;6.72;;;4.28;;
36191;SDS011;22233;42.708;23.360;2023-04-03T16:45:16;6.15;;;3.63;;
36191;SDS011;22233;42.708;23.360;2023-04-03T16:47:42;8.18;;;5.30;;
36191;SDS011;22233;42.708;23.360;2023-04-03T16:50:08;5.85;;;4.25;;
36191;SDS011;22233;42.708;23.360;2023-04-03T16:52:33;12.93;;;7.30;;
36191;SDS011;22233;42.708;23.360;2023-04-03T16:54:59;9.27;;;4.35;;
36191;SDS011;22233;42.708;23.360;2023-04-03T16:57:24;7.18;;;4.75;;
36191;SDS011;22233;42.708;23.360;2023-04-03T16:59:51;6.72;;;4.13;;
36191;SDS011;22233;42.708;23.360;2023-04-03T17:02:17;6.72;;;4.22;;
36191;SDS011;22233;42.708;23.360;2023-04-03T17:04:43;9.13;;;5.63;;